<?xml version="1.0" encoding="UTF-8" standalone="no" ?>
<gpx xmlns="http://www.topografix.com/GPX/1/1" xmlns:xsi="http://www.w3.org/2001/XMLSchema-instance" xsi:schemaLocation="http://www.topografix.com/GPX/1/1 http://www.topografix.com/GPX/1/1/gpx.xsd" version="1.1" creator="VisuGPX - https://www.visugpx.com">
  <metadata>
    <name>Edirne-Zagreb</name>
  </metadata>
  <trk>
    <name><![CDATA[Tour d'Europe: étape 714]]></name>
    <extensions>
      <line xmlns="http://www.topografix.com/GPX/gpx_style/0/2">
        <color>0000FF</color>
        <width>4</width>
      </line>
    </extensions>
    <trkseg>
      <trkpt lat="43.10744" lon="17.70346">
        <ele>62.559761</ele>
        <time>2022-06-12T08:33:09.102Z</time>
      </trkpt>
      <trkpt lat="43.10848" lon="17.70374">
        <ele>62.275687</ele>
        <time>2022-06-12T08:33:49.094Z</time>
      </trkpt>
      <trkpt lat="43.11056" lon="17.70431">
        <ele>58.263783</ele>
        <time>2022-06-12T08:34:49.109Z</time>
      </trkpt>
      <trkpt lat="43.11271" lon="17.70607">
        <ele>54.943633</ele>
        <time>2022-06-12T08:35:50.101Z</time>
      </trkpt>
      <trkpt lat="43.1143" lon="17.70676">
        <ele>60.75014</ele>
        <time>2022-06-12T08:37:08.099Z</time>
      </trkpt>
      <trkpt lat="43.11622" lon="17.70716">
        <ele>51.14322</ele>
        <time>2022-06-12T08:38:08.112Z</time>
      </trkpt>
      <trkpt lat="43.11796" lon="17.70554">
        <ele>55.499464</ele>
        <time>2022-06-12T08:39:40.103Z</time>
      </trkpt>
      <trkpt lat="43.12013" lon="17.70614">
        <ele>53.547855</ele>
        <time>2022-06-12T08:40:45.078Z</time>
      </trkpt>
      <trkpt lat="43.12223" lon="17.70694">
        <ele>52.231369</ele>
        <time>2022-06-12T08:41:47.079Z</time>
      </trkpt>
      <trkpt lat="43.12348" lon="17.70921">
        <ele>53.916195</ele>
        <time>2022-06-12T08:42:47.074Z</time>
      </trkpt>
      <trkpt lat="43.12435" lon="17.71184">
        <ele>55.663261</ele>
        <time>2022-06-12T08:43:48.071Z</time>
      </trkpt>
      <trkpt lat="43.12524" lon="17.71452">
        <ele>56.676102</ele>
        <time>2022-06-12T08:44:50.112Z</time>
      </trkpt>
      <trkpt lat="43.12621" lon="17.71738">
        <ele>61.028429</ele>
        <time>2022-06-12T08:45:54.070Z</time>
      </trkpt>
      <trkpt lat="43.12709" lon="17.72009">
        <ele>61.530252</ele>
        <time>2022-06-12T08:46:54.072Z</time>
      </trkpt>
      <trkpt lat="43.12769" lon="17.72153">
        <ele>62.767861</ele>
        <time>2022-06-12T08:48:43.075Z</time>
      </trkpt>
      <trkpt lat="43.12894" lon="17.72289">
        <ele>54.370592</ele>
        <time>2022-06-12T08:49:39.072Z</time>
      </trkpt>
      <trkpt lat="43.13119" lon="17.72374">
        <ele>53.781477</ele>
        <time>2022-06-12T08:50:42.096Z</time>
      </trkpt>
      <trkpt lat="43.13342" lon="17.72426">
        <ele>59.271537</ele>
        <time>2022-06-12T08:51:44.069Z</time>
      </trkpt>
      <trkpt lat="43.13556" lon="17.72478">
        <ele>60.587853</ele>
        <time>2022-06-12T08:52:57.121Z</time>
      </trkpt>
      <trkpt lat="43.13775" lon="17.7256">
        <ele>61.788917</ele>
        <time>2022-06-12T08:53:56.093Z</time>
      </trkpt>
      <trkpt lat="43.13985" lon="17.72723">
        <ele>60.809537</ele>
        <time>2022-06-12T09:16:15.085Z</time>
      </trkpt>
      <trkpt lat="43.14189" lon="17.72798">
        <ele>62.49313</ele>
        <time>2022-06-12T09:17:17.103Z</time>
      </trkpt>
      <trkpt lat="43.14389" lon="17.7275">
        <ele>59.189906</ele>
        <time>2022-06-12T09:18:18.093Z</time>
      </trkpt>
      <trkpt lat="43.14576" lon="17.72862">
        <ele>61.064917</ele>
        <time>2022-06-12T09:19:28.090Z</time>
      </trkpt>
      <trkpt lat="43.14744" lon="17.73062">
        <ele>65.22953</ele>
        <time>2022-06-12T09:20:31.145Z</time>
      </trkpt>
      <trkpt lat="43.14901" lon="17.73257">
        <ele>66.842458</ele>
        <time>2022-06-12T09:21:31.134Z</time>
      </trkpt>
      <trkpt lat="43.15027" lon="17.73483">
        <ele>64.771018</ele>
        <time>2022-06-12T09:22:44.093Z</time>
      </trkpt>
      <trkpt lat="43.15154" lon="17.73705">
        <ele>62.526946</ele>
        <time>2022-06-12T09:23:54.104Z</time>
      </trkpt>
      <trkpt lat="43.15311" lon="17.73904">
        <ele>63.882622</ele>
        <time>2022-06-12T09:25:01.086Z</time>
      </trkpt>
      <trkpt lat="43.15463" lon="17.74101">
        <ele>63.134189</ele>
        <time>2022-06-12T09:26:02.093Z</time>
      </trkpt>
      <trkpt lat="43.15624" lon="17.74283">
        <ele>64.952703</ele>
        <time>2022-06-12T09:27:04.092Z</time>
      </trkpt>
      <trkpt lat="43.15755" lon="17.7452">
        <ele>68.128117</ele>
        <time>2022-06-12T09:28:06.101Z</time>
      </trkpt>
      <trkpt lat="43.15866" lon="17.74738">
        <ele>71.166085</ele>
        <time>2022-06-12T09:29:28.112Z</time>
      </trkpt>
      <trkpt lat="43.15919" lon="17.7503">
        <ele>68.884832</ele>
        <time>2022-06-12T09:30:45.122Z</time>
      </trkpt>
      <trkpt lat="43.15913" lon="17.75295">
        <ele>65.873011</ele>
        <time>2022-06-12T09:32:05.111Z</time>
      </trkpt>
      <trkpt lat="43.15983" lon="17.75597">
        <ele>64.758062</ele>
        <time>2022-06-12T09:33:05.105Z</time>
      </trkpt>
      <trkpt lat="43.16147" lon="17.75794">
        <ele>62.543921</ele>
        <time>2022-06-12T09:34:04.100Z</time>
      </trkpt>
      <trkpt lat="43.16367" lon="17.7584">
        <ele>64.438451</ele>
        <time>2022-06-12T09:34:59.145Z</time>
      </trkpt>
      <trkpt lat="43.16588" lon="17.75857">
        <ele>64.914346</ele>
        <time>2022-06-12T09:35:59.103Z</time>
      </trkpt>
      <trkpt lat="43.16793" lon="17.75984">
        <ele>63.905538</ele>
        <time>2022-06-12T09:36:52.108Z</time>
      </trkpt>
      <trkpt lat="43.16943" lon="17.76226">
        <ele>69.30525</ele>
        <time>2022-06-12T09:37:48.104Z</time>
      </trkpt>
      <trkpt lat="43.17066" lon="17.76494">
        <ele>68.479293</ele>
        <time>2022-06-12T09:38:42.100Z</time>
      </trkpt>
      <trkpt lat="43.17103" lon="17.76786">
        <ele>66.692935</ele>
        <time>2022-06-12T09:39:44.109Z</time>
      </trkpt>
      <trkpt lat="43.17101" lon="17.77091">
        <ele>65.47117</ele>
        <time>2022-06-12T09:40:44.107Z</time>
      </trkpt>
      <trkpt lat="43.17094" lon="17.77375">
        <ele>64.969991</ele>
        <time>2022-06-12T09:41:48.121Z</time>
      </trkpt>
      <trkpt lat="43.17088" lon="17.77698">
        <ele>64.795387</ele>
        <time>2022-06-12T09:42:51.092Z</time>
      </trkpt>
      <trkpt lat="43.17118" lon="17.77989">
        <ele>62.390925</ele>
        <time>2022-06-12T09:43:51.099Z</time>
      </trkpt>
      <trkpt lat="43.17269" lon="17.7818">
        <ele>59.88721</ele>
        <time>2022-06-12T09:44:52.115Z</time>
      </trkpt>
      <trkpt lat="43.17461" lon="17.78243">
        <ele>62.113052</ele>
        <time>2022-06-12T09:45:55.111Z</time>
      </trkpt>
      <trkpt lat="43.17631" lon="17.78161">
        <ele>62.080171</ele>
        <time>2022-06-12T09:47:00.101Z</time>
      </trkpt>
      <trkpt lat="43.17829" lon="17.78069">
        <ele>62.935367</ele>
        <time>2022-06-12T09:48:05.099Z</time>
      </trkpt>
      <trkpt lat="43.18016" lon="17.77997">
        <ele>63.556326</ele>
        <time>2022-06-12T09:49:06.094Z</time>
      </trkpt>
      <trkpt lat="43.18214" lon="17.77912">
        <ele>64.256578</ele>
        <time>2022-06-12T09:50:06.097Z</time>
      </trkpt>
      <trkpt lat="43.184" lon="17.77797">
        <ele>62.286184</ele>
        <time>2022-06-12T09:51:06.105Z</time>
      </trkpt>
      <trkpt lat="43.18601" lon="17.77642">
        <ele>58.730119</ele>
        <time>2022-06-12T09:52:09.098Z</time>
      </trkpt>
      <trkpt lat="43.18797" lon="17.77514">
        <ele>62.977138</ele>
        <time>2022-06-12T09:53:08.108Z</time>
      </trkpt>
      <trkpt lat="43.19007" lon="17.77415">
        <ele>66.06079</ele>
        <time>2022-06-12T09:54:12.099Z</time>
      </trkpt>
      <trkpt lat="43.19223" lon="17.77375">
        <ele>67.157967</ele>
        <time>2022-06-12T09:55:11.086Z</time>
      </trkpt>
      <trkpt lat="43.19424" lon="17.77508">
        <ele>69.721724</ele>
        <time>2022-06-12T09:56:14.111Z</time>
      </trkpt>
      <trkpt lat="43.19596" lon="17.77699">
        <ele>66.400497</ele>
        <time>2022-06-12T09:57:13.103Z</time>
      </trkpt>
      <trkpt lat="43.19761" lon="17.77882">
        <ele>68.44786</ele>
        <time>2022-06-12T09:58:13.140Z</time>
      </trkpt>
      <trkpt lat="43.19907" lon="17.78109">
        <ele>70.122377</ele>
        <time>2022-06-12T09:59:15.147Z</time>
      </trkpt>
      <trkpt lat="43.20066" lon="17.78225">
        <ele>68.730275</ele>
        <time>2022-06-12T10:00:20.091Z</time>
      </trkpt>
      <trkpt lat="43.20241" lon="17.78375">
        <ele>68.597991</ele>
        <time>2022-06-12T10:01:24.104Z</time>
      </trkpt>
      <trkpt lat="43.20296" lon="17.78598">
        <ele>70.383324</ele>
        <time>2022-06-12T10:02:24.101Z</time>
      </trkpt>
      <trkpt lat="43.20459" lon="17.78765">
        <ele>70.773163</ele>
        <time>2022-06-12T10:03:30.115Z</time>
      </trkpt>
      <trkpt lat="43.20648" lon="17.78767">
        <ele>69.919269</ele>
        <time>2022-06-12T10:04:38.097Z</time>
      </trkpt>
      <trkpt lat="43.20838" lon="17.78886">
        <ele>70.087391</ele>
        <time>2022-06-12T10:05:48.104Z</time>
      </trkpt>
      <trkpt lat="43.21035" lon="17.78948">
        <ele>69.560227</ele>
        <time>2022-06-12T10:06:53.096Z</time>
      </trkpt>
      <trkpt lat="43.21188" lon="17.79127">
        <ele>73.596047</ele>
        <time>2022-06-12T10:07:59.095Z</time>
      </trkpt>
      <trkpt lat="43.21305" lon="17.79355">
        <ele>76.515848</ele>
        <time>2022-06-12T10:08:59.134Z</time>
      </trkpt>
      <trkpt lat="43.21469" lon="17.79577">
        <ele>71.254736</ele>
        <time>2022-06-12T10:09:59.099Z</time>
      </trkpt>
      <trkpt lat="43.21517" lon="17.79837">
        <ele>72.174368</ele>
        <time>2022-06-12T10:11:29.104Z</time>
      </trkpt>
      <trkpt lat="43.21551" lon="17.80117">
        <ele>80.003308</ele>
        <time>2022-06-12T10:12:52.098Z</time>
      </trkpt>
      <trkpt lat="43.21554" lon="17.80402">
        <ele>81.604102</ele>
        <time>2022-06-12T10:14:21.099Z</time>
      </trkpt>
      <trkpt lat="43.21584" lon="17.80679">
        <ele>79.888415</ele>
        <time>2022-06-12T10:15:46.103Z</time>
      </trkpt>
      <trkpt lat="43.2161" lon="17.80955">
        <ele>79.351438</ele>
        <time>2022-06-12T10:17:16.109Z</time>
      </trkpt>
      <trkpt lat="43.21653" lon="17.81226">
        <ele>78.200845</ele>
        <time>2022-06-12T10:18:42.105Z</time>
      </trkpt>
      <trkpt lat="43.21683" lon="17.81504">
        <ele>79.421128</ele>
        <time>2022-06-12T10:20:07.099Z</time>
      </trkpt>
      <trkpt lat="43.21723" lon="17.81809">
        <ele>78.950144</ele>
        <time>2022-06-12T10:21:42.104Z</time>
      </trkpt>
      <trkpt lat="43.21792" lon="17.8207">
        <ele>76.643344</ele>
        <time>2022-06-12T10:23:07.104Z</time>
      </trkpt>
      <trkpt lat="43.21919" lon="17.82301">
        <ele>76.918258</ele>
        <time>2022-06-12T10:24:21.105Z</time>
      </trkpt>
      <trkpt lat="43.22113" lon="17.82389">
        <ele>76.4111</ele>
        <time>2022-06-12T10:25:21.102Z</time>
      </trkpt>
      <trkpt lat="43.22319" lon="17.82399">
        <ele>77.260541</ele>
        <time>2022-06-12T10:26:27.110Z</time>
      </trkpt>
      <trkpt lat="43.22543" lon="17.8238">
        <ele>78.505258</ele>
        <time>2022-06-12T10:27:26.102Z</time>
      </trkpt>
      <trkpt lat="43.22765" lon="17.82329">
        <ele>76.664059</ele>
        <time>2022-06-12T10:28:25.115Z</time>
      </trkpt>
      <trkpt lat="43.22961" lon="17.82406">
        <ele>78.614795</ele>
        <time>2022-06-12T10:29:25.116Z</time>
      </trkpt>
      <trkpt lat="43.23026" lon="17.82659">
        <ele>79.433917</ele>
        <time>2022-06-12T10:30:25.103Z</time>
      </trkpt>
      <trkpt lat="43.23065" lon="17.82974">
        <ele>78.045332</ele>
        <time>2022-06-12T10:31:28.097Z</time>
      </trkpt>
      <trkpt lat="43.23197" lon="17.83201">
        <ele>75.560342</ele>
        <time>2022-06-12T10:39:34.097Z</time>
      </trkpt>
      <trkpt lat="43.2339" lon="17.83291">
        <ele>73.93172</ele>
        <time>2022-06-12T10:40:39.090Z</time>
      </trkpt>
      <trkpt lat="43.23589" lon="17.83265">
        <ele>76.194069</ele>
        <time>2022-06-12T10:41:45.114Z</time>
      </trkpt>
      <trkpt lat="43.23796" lon="17.83255">
        <ele>74.372092</ele>
        <time>2022-06-12T10:50:54.111Z</time>
      </trkpt>
      <trkpt lat="43.24002" lon="17.83262">
        <ele>75.970147</ele>
        <time>2022-06-12T10:52:20.104Z</time>
      </trkpt>
      <trkpt lat="43.24208" lon="17.83223">
        <ele>76.465878</ele>
        <time>2022-06-12T10:53:23.097Z</time>
      </trkpt>
      <trkpt lat="43.244" lon="17.83086">
        <ele>82.021624</ele>
        <time>2022-06-12T10:54:23.115Z</time>
      </trkpt>
      <trkpt lat="43.2461" lon="17.8298">
        <ele>80.323465</ele>
        <time>2022-06-12T10:55:27.103Z</time>
      </trkpt>
      <trkpt lat="43.24799" lon="17.82836">
        <ele>77.369241</ele>
        <time>2022-06-12T10:56:27.100Z</time>
      </trkpt>
      <trkpt lat="43.24979" lon="17.82661">
        <ele>79.067858</ele>
        <time>2022-06-12T10:57:24.109Z</time>
      </trkpt>
      <trkpt lat="43.25154" lon="17.82517">
        <ele>80.502603</ele>
        <time>2022-06-12T10:58:29.099Z</time>
      </trkpt>
      <trkpt lat="43.25352" lon="17.82382">
        <ele>86.351514</ele>
        <time>2022-06-12T10:59:32.120Z</time>
      </trkpt>
      <trkpt lat="43.2555" lon="17.82333">
        <ele>83.708707</ele>
        <time>2022-06-12T11:00:33.111Z</time>
      </trkpt>
      <trkpt lat="43.25763" lon="17.82359">
        <ele>80.738456</ele>
        <time>2022-06-12T11:01:29.105Z</time>
      </trkpt>
      <trkpt lat="43.25979" lon="17.82389">
        <ele>81.293156</ele>
        <time>2022-06-12T11:02:29.108Z</time>
      </trkpt>
      <trkpt lat="43.26184" lon="17.82441">
        <ele>80.798629</ele>
        <time>2022-06-12T11:03:29.104Z</time>
      </trkpt>
      <trkpt lat="43.26395" lon="17.82464">
        <ele>81.698536</ele>
        <time>2022-06-12T11:04:32.084Z</time>
      </trkpt>
      <trkpt lat="43.26527" lon="17.82331">
        <ele>82.727584</ele>
        <time>2022-06-12T11:05:38.089Z</time>
      </trkpt>
      <trkpt lat="43.26731" lon="17.8232">
        <ele>83.908903</ele>
        <time>2022-06-12T11:06:47.095Z</time>
      </trkpt>
      <trkpt lat="43.26926" lon="17.82311">
        <ele>83.952566</ele>
        <time>2022-06-12T11:07:48.099Z</time>
      </trkpt>
      <trkpt lat="43.27126" lon="17.82328">
        <ele>83.986004</ele>
        <time>2022-06-12T11:08:53.103Z</time>
      </trkpt>
      <trkpt lat="43.27218" lon="17.8258">
        <ele>84.461964</ele>
        <time>2022-06-12T11:09:56.127Z</time>
      </trkpt>
      <trkpt lat="43.27336" lon="17.82817">
        <ele>84.78591</ele>
        <time>2022-06-12T11:10:57.106Z</time>
      </trkpt>
      <trkpt lat="43.27522" lon="17.82949">
        <ele>87.081815</ele>
        <time>2022-06-12T11:11:57.096Z</time>
      </trkpt>
      <trkpt lat="43.27725" lon="17.83039">
        <ele>87.912367</ele>
        <time>2022-06-12T11:13:06.094Z</time>
      </trkpt>
      <trkpt lat="43.27929" lon="17.8311">
        <ele>87.789636</ele>
        <time>2022-06-12T11:14:06.097Z</time>
      </trkpt>
      <trkpt lat="43.28146" lon="17.83143">
        <ele>87.038221</ele>
        <time>2022-06-12T11:15:06.139Z</time>
      </trkpt>
      <trkpt lat="43.28315" lon="17.82997">
        <ele>85.89285</ele>
        <time>2022-06-12T11:16:08.112Z</time>
      </trkpt>
      <trkpt lat="43.28441" lon="17.82775">
        <ele>88.00936</ele>
        <time>2022-06-12T11:17:11.100Z</time>
      </trkpt>
      <trkpt lat="43.2855" lon="17.82552">
        <ele>89.502561</ele>
        <time>2022-06-12T11:18:11.080Z</time>
      </trkpt>
      <trkpt lat="43.28641" lon="17.82311">
        <ele>90.861809</ele>
        <time>2022-06-12T11:19:14.091Z</time>
      </trkpt>
      <trkpt lat="43.28833" lon="17.82324">
        <ele>91.531743</ele>
        <time>2022-06-12T11:20:17.102Z</time>
      </trkpt>
      <trkpt lat="43.29029" lon="17.82335">
        <ele>93.389935</ele>
        <time>2022-06-12T11:21:20.108Z</time>
      </trkpt>
      <trkpt lat="43.29241" lon="17.82315">
        <ele>90.998501</ele>
        <time>2022-06-12T11:22:29.107Z</time>
      </trkpt>
      <trkpt lat="43.29434" lon="17.82286">
        <ele>92.2211</ele>
        <time>2022-06-12T11:23:32.125Z</time>
      </trkpt>
      <trkpt lat="43.29632" lon="17.8223">
        <ele>93.923766</ele>
        <time>2022-06-12T11:24:36.078Z</time>
      </trkpt>
      <trkpt lat="43.2978" lon="17.82157">
        <ele>92.836145</ele>
        <time>2022-06-12T11:52:11.094Z</time>
      </trkpt>
      <trkpt lat="43.29961" lon="17.82152">
        <ele>89.413946</ele>
        <time>2022-06-12T12:27:51.097Z</time>
      </trkpt>
      <trkpt lat="43.30152" lon="17.82121">
        <ele>88.468973</ele>
        <time>2022-06-12T12:34:19.070Z</time>
      </trkpt>
      <trkpt lat="43.3034" lon="17.8217">
        <ele>86.447647</ele>
        <time>2022-06-12T12:36:57.096Z</time>
      </trkpt>
      <trkpt lat="43.3053" lon="17.82222">
        <ele>93.098153</ele>
        <time>2022-06-12T12:40:04.096Z</time>
      </trkpt>
      <trkpt lat="43.30727" lon="17.82277">
        <ele>90.425156</ele>
        <time>2022-06-12T12:42:52.090Z</time>
      </trkpt>
      <trkpt lat="43.30917" lon="17.82305">
        <ele>98.349552</ele>
        <time>2022-06-12T12:45:32.099Z</time>
      </trkpt>
      <trkpt lat="43.31108" lon="17.82288">
        <ele>100.806753</ele>
        <time>2022-06-12T12:48:17.091Z</time>
      </trkpt>
      <trkpt lat="43.313" lon="17.82265">
        <ele>98.868797</ele>
        <time>2022-06-12T12:51:06.080Z</time>
      </trkpt>
      <trkpt lat="43.31491" lon="17.82182">
        <ele>99.137804</ele>
        <time>2022-06-12T12:53:52.093Z</time>
      </trkpt>
      <trkpt lat="43.31677" lon="17.82129">
        <ele>98.056122</ele>
        <time>2022-06-12T12:56:30.087Z</time>
      </trkpt>
      <trkpt lat="43.31878" lon="17.82093">
        <ele>98.573156</ele>
        <time>2022-06-12T12:59:44.063Z</time>
      </trkpt>
      <trkpt lat="43.32066" lon="17.82061">
        <ele>98.856124</ele>
        <time>2022-06-12T13:02:35.096Z</time>
      </trkpt>
      <trkpt lat="43.32279" lon="17.82024">
        <ele>100.289064</ele>
        <time>2022-06-12T13:06:18.093Z</time>
      </trkpt>
      <trkpt lat="43.32459" lon="17.81942">
        <ele>95.330711</ele>
        <time>2022-06-12T13:08:54.122Z</time>
      </trkpt>
      <trkpt lat="43.32599" lon="17.81761">
        <ele>97.11002</ele>
        <time>2022-06-12T13:11:23.090Z</time>
      </trkpt>
      <trkpt lat="43.3275" lon="17.81608">
        <ele>97.06429</ele>
        <time>2022-06-12T13:14:00.068Z</time>
      </trkpt>
      <trkpt lat="43.32968" lon="17.81546">
        <ele>99.993622</ele>
        <time>2022-06-12T13:18:37.089Z</time>
      </trkpt>
      <trkpt lat="43.33168" lon="17.81508">
        <ele>106.152012</ele>
        <time>2022-06-12T13:21:28.116Z</time>
      </trkpt>
      <trkpt lat="43.3334" lon="17.81404">
        <ele>120.148631</ele>
        <time>2022-06-12T13:24:21.089Z</time>
      </trkpt>
      <trkpt lat="43.3351" lon="17.8131">
        <ele>115.732017</ele>
        <time>2022-06-12T13:26:58.138Z</time>
      </trkpt>
      <trkpt lat="43.33642" lon="17.81123">
        <ele>110.127501</ele>
        <time>2022-06-12T13:29:50.093Z</time>
      </trkpt>
      <trkpt lat="43.33734" lon="17.80914">
        <ele>109.129425</ele>
        <time>2022-06-12T13:32:37.074Z</time>
      </trkpt>
      <trkpt lat="43.33835" lon="17.80768">
        <ele>114.890329</ele>
        <time>2022-06-12T13:35:25.065Z</time>
      </trkpt>
      <trkpt lat="43.33798" lon="17.80729">
        <ele>115.553643</ele>
        <time>2022-06-12T13:59:56.777Z</time>
      </trkpt>
    </trkseg>
  </trk>
</gpx>